createdAt,value
2023-03-29T00:00:14.177Z,8.25
2023-03-29T00:02:43.729Z,5.57
2023-03-29T00:05:12.386Z,7.13
2023-03-29T00:07:39.728Z,7.53
2023-03-29T00:10:10.285Z,12.68
2023-03-29T00:12:41.629Z,16.45
2023-03-29T00:15:09.772Z,5.25
2023-03-29T00:17:37.527Z,10.60
2023-03-29T00:20:10.349Z,4.57
2023-03-29T00:22:40.152Z,7.25
2023-03-29T00:25:11.538Z,5.15
2023-03-29T00:27:39.454Z,6.55
2023-03-29T00:30:10.217Z,7.43
2023-03-29T00:32:38.082Z,6.88
2023-03-29T00:35:07.434Z,6.38
2023-03-29T00:37:35.079Z,5.32
2023-03-29T00:40:05.027Z,4.68
2023-03-29T00:42:32.595Z,6.80
2023-03-29T00:45:18.924Z,6.68
2023-03-29T00:47:57.922Z,6.63
2023-03-29T00:50:36.356Z,8.10
2023-03-29T00:55:59.518Z,6.55
2023-03-29T00:58:51.920Z,4.85
2023-03-29T01:01:28.446Z,5.07
2023-03-29T01:04:18.000Z,4.93
2023-03-29T01:06:58.785Z,5.90
2023-03-29T01:09:30.407Z,7.13
2023-03-29T01:12:05.532Z,3.83
2023-03-29T01:14:45.418Z,5.00
2023-03-29T01:17:13.066Z,4.95
2023-03-29T01:19:59.354Z,4.32
2023-03-29T01:23:04.386Z,3.92
2023-03-29T01:25:37.404Z,3.80
2023-03-29T01:28:22.675Z,5.22
2023-03-29T01:31:03.908Z,3.40
2023-03-29T01:33:48.861Z,3.03
2023-03-29T01:36:27.576Z,2.78
2023-03-29T01:39:03.412Z,3.83
2023-03-29T01:41:58.271Z,3.53
2023-03-29T01:44:45.559Z,3.38
2023-03-29T01:47:33.127Z,3.95
2023-03-29T01:50:17.929Z,2.83
2023-03-29T01:53:06.063Z,3.65
2023-03-29T01:55:48.033Z,3.90
2023-03-29T01:58:18.155Z,3.38
2023-03-29T02:00:49.242Z,3.67
2023-03-29T02:03:19.889Z,5.88
2023-03-29T02:05:48.351Z,4.13
2023-03-29T02:08:18.447Z,4.75
2023-03-29T02:10:46.636Z,4.13
2023-03-29T02:13:14.261Z,9.70
2023-03-29T02:15:44.457Z,5.80
2023-03-29T02:18:16.430Z,5.22
2023-03-29T02:20:48.726Z,3.00
2023-03-29T02:23:27.370Z,4.07
2023-03-29T02:25:57.017Z,3.42
2023-03-29T02:28:28.256Z,5.75
2023-03-29T02:31:07.990Z,5.75
2023-03-29T02:33:53.134Z,4.03
2023-03-29T02:36:47.453Z,6.10
2023-03-29T02:39:17.847Z,4.25
2023-03-29T02:41:50.558Z,3.78
2023-03-29T02:44:27.100Z,3.53
2023-03-29T02:47:03.194Z,3.80
2023-03-29T02:49:30.924Z,2.90
2023-03-29T02:52:09.180Z,2.63
2023-03-29T02:54:43.437Z,8.77
2023-03-29T02:57:12.396Z,7.40
2023-03-29T02:59:41.039Z,5.30
2023-03-29T03:07:05.390Z,6.22
2023-03-29T03:09:32.967Z,5.85
2023-03-29T03:12:00.501Z,5.90
2023-03-29T03:14:28.317Z,5.75
2023-03-29T03:16:58.495Z,8.15
2023-03-29T03:19:25.975Z,8.60
2023-03-29T03:21:53.364Z,7.43
2023-03-29T03:24:22.319Z,6.80
2023-03-29T03:26:50.064Z,6.15
2023-03-29T03:29:19.309Z,9.15
2023-03-29T03:32:19.294Z,7.45
2023-03-29T03:34:55.280Z,4.78
2023-03-29T03:37:25.892Z,6.35
2023-03-29T03:39:54.005Z,7.20
2023-03-29T03:42:21.683Z,8.82
2023-03-29T03:44:50.022Z,8.73
2023-03-29T03:47:51.519Z,7.68
2023-03-29T03:50:38.288Z,8.43
2023-03-29T03:53:07.252Z,10.10
2023-03-29T03:55:59.038Z,7.90
2023-03-29T03:58:32.482Z,9.15
2023-03-29T04:01:00.234Z,7.43
2023-03-29T04:06:09.841Z,4.72
2023-03-29T04:09:06.212Z,5.72
2023-03-29T04:11:42.970Z,5.72
2023-03-29T04:14:11.717Z,3.92
2023-03-29T04:16:57.794Z,4.63
2023-03-29T04:20:12.374Z,5.30
2023-03-29T04:22:41.353Z,7.07
2023-03-29T04:25:10.494Z,5.20
2023-03-29T04:28:13.342Z,7.25
2023-03-29T04:30:49.006Z,4.03
2023-03-29T04:33:34.734Z,6.28
2023-03-29T04:36:02.246Z,6.10
2023-03-29T04:38:36.122Z,7.75
2023-03-29T04:41:05.045Z,9.32
2023-03-29T04:43:52.199Z,6.13
2023-03-29T04:46:28.533Z,7.00
2023-03-29T04:49:14.720Z,7.43
2023-03-29T04:51:46.421Z,6.57
2023-03-29T04:54:19.086Z,8.82
2023-03-29T04:57:09.198Z,7.93
2023-03-29T04:59:46.917Z,7.23
2023-03-29T05:02:37.032Z,9.10
2023-03-29T05:05:05.085Z,8.00
2023-03-29T05:07:32.952Z,11.60
2023-03-29T05:10:00.287Z,9.55
2023-03-29T05:12:27.837Z,6.18
2023-03-29T05:14:57.855Z,9.38
2023-03-29T05:17:27.470Z,6.88
2023-03-29T05:20:01.405Z,8.05
2023-03-29T05:22:29.769Z,6.50
2023-03-29T05:24:57.601Z,5.55
2023-03-29T05:27:25.498Z,7.47
2023-03-29T05:30:01.805Z,8.80
2023-03-29T05:32:47.023Z,8.18
2023-03-29T05:35:17.955Z,4.25
2023-03-29T05:37:47.384Z,6.32
2023-03-29T05:40:15.228Z,8.63
2023-03-29T05:43:12.211Z,8.55
2023-03-29T05:45:39.969Z,10.60
2023-03-29T05:48:07.487Z,10.95
2023-03-29T05:50:37.223Z,11.52
2023-03-29T05:53:05.835Z,10.95
2023-03-29T05:55:34.070Z,14.13
2023-03-29T05:58:01.486Z,12.45
2023-03-29T06:00:36.845Z,9.05
2023-03-29T06:03:25.469Z,9.55
2023-03-29T06:06:03.921Z,8.15
2023-03-29T06:08:35.027Z,9.30
2023-03-29T06:11:13.512Z,10.52
2023-03-29T06:14:16.342Z,10.95
2023-03-29T06:16:51.592Z,10.32
2023-03-29T06:21:47.861Z,11.40
2023-03-29T06:24:20.846Z,9.65
2023-03-29T06:26:54.656Z,12.68
2023-03-29T06:31:50.922Z,20.92
2023-03-29T06:34:38.692Z,26.70
2023-03-29T06:37:31.938Z,26.17
2023-03-29T06:40:19.264Z,12.03
2023-03-29T06:42:48.876Z,16.75
2023-03-29T06:45:20.625Z,18.65
2023-03-29T06:47:51.094Z,18.05
2023-03-29T06:50:19.643Z,18.58
2023-03-29T06:52:54.277Z,15.07
2023-03-29T06:55:22.820Z,17.20
2023-03-29T06:57:50.934Z,13.27
2023-03-29T07:00:27.950Z,8.32
2023-03-29T07:03:09.977Z,8.38
2023-03-29T07:05:40.811Z,7.45
2023-03-29T07:08:13.877Z,7.72
2023-03-29T07:10:59.434Z,2.97
2023-03-29T07:13:46.307Z,11.07
2023-03-29T07:16:19.334Z,10.10
2023-03-29T07:19:22.680Z,3.15
2023-03-29T07:21:56.160Z,6.72
2023-03-29T07:24:43.942Z,5.93
2023-03-29T07:28:11.406Z,7.72
2023-03-29T07:30:39.448Z,20.65
2023-03-29T07:33:13.652Z,8.60
2023-03-29T07:35:53.665Z,7.80
2023-03-29T07:38:21.462Z,20.25
2023-03-29T07:40:55.417Z,22.50
2023-03-29T07:43:31.806Z,13.20
2023-03-29T07:46:04.884Z,8.70
2023-03-29T07:48:37.135Z,8.55
2023-03-29T07:51:07.936Z,6.90
2023-03-29T07:54:06.490Z,5.30
2023-03-29T07:56:48.423Z,4.35
2023-03-29T07:59:16.606Z,2.60
2023-03-29T08:01:46.895Z,12.60
2023-03-29T08:04:26.604Z,5.20
2023-03-29T08:07:13.810Z,3.60
2023-03-29T08:10:00.293Z,5.85
2023-03-29T08:12:52.352Z,2.85
2023-03-29T08:15:23.908Z,3.25
2023-03-29T08:17:51.722Z,2.78
2023-03-29T08:20:20.055Z,3.38
2023-03-29T08:22:52.279Z,2.60
2023-03-29T08:25:23.034Z,4.03
2023-03-29T08:27:53.596Z,3.55
2023-03-29T08:30:42.139Z,7.60
2023-03-29T08:33:09.956Z,4.80
2023-03-29T08:35:37.667Z,9.23
2023-03-29T08:38:19.295Z,3.38
2023-03-29T08:40:49.582Z,3.53
2023-03-29T08:43:42.822Z,55.80
2023-03-29T08:49:30.773Z,7.05
2023-03-29T08:52:04.841Z,3.30
2023-03-29T08:54:43.633Z,4.60
2023-03-29T08:57:30.662Z,3.03
2023-03-29T09:00:10.609Z,4.90
2023-03-29T09:02:43.542Z,3.33
2023-03-29T09:05:25.917Z,6.40
2023-03-29T09:08:18.281Z,2.67
2023-03-29T09:11:18.852Z,2.55
2023-03-29T09:14:16.394Z,2.33
2023-03-29T09:16:59.252Z,3.22
2023-03-29T09:19:52.555Z,2.85
2023-03-29T09:22:57.757Z,2.88
2023-03-29T09:26:20.838Z,3.53
2023-03-29T09:29:58.292Z,2.83
2023-03-29T09:32:54.680Z,2.33
2023-03-29T09:36:30.155Z,4.00
2023-03-29T09:38:57.970Z,9.70
2023-03-29T09:41:59.406Z,5.63
2023-03-29T09:44:41.547Z,3.75
2023-03-29T09:47:27.158Z,4.45
2023-03-29T09:50:04.385Z,4.00
2023-03-29T09:52:32.872Z,2.88
2023-03-29T09:55:18.779Z,4.25
2023-03-29T09:58:18.131Z,5.18
2023-03-29T10:00:51.101Z,2.88
2023-03-29T10:03:27.361Z,3.67
2023-03-29T10:06:12.264Z,6.32
2023-03-29T10:08:52.902Z,8.27
2023-03-29T10:11:32.965Z,2.15
2023-03-29T10:14:12.361Z,2.05
2023-03-29T10:16:46.407Z,2.83
2023-03-29T10:19:29.179Z,5.25
2023-03-29T10:22:01.729Z,3.03
2023-03-29T10:24:29.219Z,5.93
2023-03-29T10:27:10.929Z,4.57
2023-03-29T10:29:42.573Z,1.80
2023-03-29T10:32:22.955Z,5.90
2023-03-29T10:34:53.650Z,6.22
2023-03-29T10:37:22.999Z,2.45
2023-03-29T10:39:51.916Z,4.65
2023-03-29T10:42:24.526Z,2.80
2023-03-29T10:44:58.619Z,6.78
2023-03-29T10:47:31.640Z,5.47
2023-03-29T10:49:59.381Z,10.00
2023-03-29T10:52:29.220Z,8.93
2023-03-29T10:54:57.217Z,2.53
2023-03-29T10:58:00.150Z,2.40
2023-03-29T11:00:42.750Z,3.15
2023-03-29T11:03:50.944Z,2.55
2023-03-29T11:06:43.043Z,2.47
2023-03-29T11:09:54.845Z,4.68
2023-03-29T11:13:11.913Z,1.90
2023-03-29T11:15:52.228Z,13.00
2023-03-29T11:18:49.836Z,9.48
2023-03-29T11:21:36.035Z,5.57
2023-03-29T11:24:42.995Z,1.83
2023-03-29T11:27:28.733Z,3.28
2023-03-29T11:30:27.373Z,2.42
2023-03-29T11:33:31.821Z,1.73
2023-03-29T11:36:32.360Z,4.50
2023-03-29T11:39:11.398Z,3.05
2023-03-29T11:41:45.030Z,5.10
2023-03-29T11:44:24.669Z,4.50
2023-03-29T11:47:02.110Z,1.88
2023-03-29T11:49:38.345Z,4.35
2023-03-29T11:52:29.659Z,16.60
2023-03-29T11:55:12.631Z,5.43
2023-03-29T11:57:54.015Z,4.13
2023-03-29T12:00:41.036Z,5.07
2023-03-29T12:03:38.667Z,4.50
2023-03-29T12:06:14.180Z,4.07
2023-03-29T12:08:48.011Z,3.58
2023-03-29T12:11:40.439Z,3.65
2023-03-29T12:14:27.951Z,5.38
2023-03-29T12:17:09.242Z,3.13
2023-03-29T12:20:15.243Z,3.65
2023-03-29T12:22:51.079Z,4.25
2023-03-29T12:25:37.465Z,4.70
2023-03-29T12:28:36.717Z,4.18
2023-03-29T12:31:51.603Z,4.15
2023-03-29T12:34:50.243Z,11.27
2023-03-29T12:38:25.234Z,5.97
2023-03-29T12:41:23.421Z,3.45
2023-03-29T12:44:04.677Z,5.18
2023-03-29T12:47:00.408Z,7.35
2023-03-29T12:49:33.977Z,4.03
2023-03-29T12:52:22.608Z,5.47
2023-03-29T12:54:59.840Z,5.43
2023-03-29T12:57:45.093Z,11.10
2023-03-29T13:00:26.002Z,5.15
2023-03-29T13:03:29.159Z,8.77
2023-03-29T13:06:09.015Z,8.60
2023-03-29T13:08:44.977Z,3.78
2023-03-29T13:11:41.401Z,8.88
2023-03-29T13:14:19.249Z,13.48
2023-03-29T13:16:47.880Z,6.68
2023-03-29T13:19:26.826Z,19.30
2023-03-29T13:22:06.834Z,9.07
2023-03-29T13:25:38.688Z,3.88
2023-03-29T13:28:37.073Z,2.58
2023-03-29T13:31:36.180Z,4.25
2023-03-29T13:34:31.208Z,3.42
2023-03-29T13:37:08.471Z,2.88
2023-03-29T13:39:37.381Z,10.70
2023-03-29T13:42:34.310Z,24.13
2023-03-29T13:45:23.162Z,24.10
2023-03-29T13:48:22.968Z,3.05
2023-03-29T13:51:07.999Z,3.25
2023-03-29T13:53:44.181Z,6.00
2023-03-29T13:56:23.457Z,2.97
2023-03-29T13:59:05.653Z,5.20
2023-03-29T14:01:47.069Z,3.95
2023-03-29T14:04:24.788Z,2.80
2023-03-29T14:06:56.512Z,6.22
2023-03-29T14:09:32.892Z,2.78
2023-03-29T14:12:01.139Z,2.92
2023-03-29T14:14:32.709Z,4.65
2023-03-29T14:17:01.351Z,6.90
2023-03-29T14:19:36.315Z,12.63
2023-03-29T14:22:13.790Z,3.15
2023-03-29T14:24:56.879Z,2.80
2023-03-29T14:27:24.613Z,3.95
2023-03-29T14:29:52.385Z,3.40
2023-03-29T14:32:31.681Z,5.10
2023-03-29T14:35:00.775Z,7.40
2023-03-29T14:37:30.121Z,2.95
2023-03-29T14:39:59.244Z,2.70
2023-03-29T14:42:28.952Z,2.65
2023-03-29T14:45:06.055Z,31.42
2023-03-29T14:47:34.360Z,6.82
2023-03-29T14:50:03.913Z,2.45
2023-03-29T14:52:32.390Z,7.43
2023-03-29T14:57:36.501Z,3.55
2023-03-29T15:00:30.172Z,4.20
2023-03-29T15:03:02.987Z,5.95
2023-03-29T15:05:41.191Z,5.53
2023-03-29T15:08:34.121Z,9.90
2023-03-29T15:11:03.149Z,6.63
2023-03-29T15:13:31.123Z,3.75
2023-03-29T15:16:04.436Z,9.07
2023-03-29T15:18:40.992Z,6.68
2023-03-29T15:21:11.318Z,10.68
2023-03-29T15:23:48.266Z,4.75
2023-03-29T15:26:23.338Z,5.70
2023-03-29T15:29:03.045Z,16.52
2023-03-29T15:31:37.061Z,17.17
2023-03-29T15:34:25.907Z,9.23
2023-03-29T15:36:54.293Z,8.05
2023-03-29T15:41:52.691Z,12.80
2023-03-29T15:44:33.444Z,16.25
2023-03-29T15:47:00.985Z,12.82
2023-03-29T15:49:29.220Z,8.97
2023-03-29T15:51:56.734Z,12.93
2023-03-29T15:54:24.961Z,12.03
2023-03-29T15:57:07.332Z,18.90
2023-03-29T15:59:36.379Z,9.98
2023-03-29T16:02:05.154Z,11.10
2023-03-29T16:04:32.598Z,9.75
2023-03-29T16:07:01.359Z,4.32
2023-03-29T16:09:29.446Z,11.50
2023-03-29T16:11:56.880Z,27.75
2023-03-29T16:14:34.022Z,19.55
2023-03-29T16:17:03.354Z,11.15
2023-03-29T16:19:32.777Z,17.02
2023-03-29T16:22:07.319Z,20.02
2023-03-29T16:24:35.857Z,17.42
2023-03-29T16:27:04.371Z,30.75
2023-03-29T16:29:31.961Z,26.55
2023-03-29T16:31:59.858Z,16.93
2023-03-29T16:34:27.518Z,13.93
2023-03-29T16:36:55.007Z,19.55
2023-03-29T16:39:25.448Z,14.35
2023-03-29T16:41:52.904Z,22.33
2023-03-29T16:44:25.713Z,26.67
2023-03-29T16:46:58.449Z,31.38
2023-03-29T16:49:26.074Z,27.65
2023-03-29T16:51:53.521Z,30.27
2023-03-29T16:54:21.347Z,27.77
2023-03-29T16:56:48.924Z,42.63
2023-03-29T16:59:16.676Z,49.72
2023-03-29T17:01:44.442Z,58.15
2023-03-29T17:04:11.911Z,32.55
2023-03-29T17:06:39.268Z,32.22
2023-03-29T17:09:07.382Z,25.43
2023-03-29T17:11:35.235Z,29.58
2023-03-29T17:14:03.202Z,54.22
2023-03-29T17:16:30.789Z,38.58
2023-03-29T17:19:02.385Z,42.10
2023-03-29T17:21:30.041Z,44.30
2023-03-29T17:23:57.499Z,59.50
2023-03-29T17:26:24.944Z,58.42
2023-03-29T17:28:52.352Z,55.20
2023-03-29T17:31:19.930Z,37.05
2023-03-29T17:33:47.682Z,33.60
2023-03-29T17:36:15.878Z,21.17
2023-03-29T17:38:43.339Z,23.10
2023-03-29T17:41:11.154Z,22.25
2023-03-29T17:43:38.579Z,21.58
2023-03-29T17:46:06.579Z,23.38
2023-03-29T17:48:34.180Z,25.80
2023-03-29T17:51:01.645Z,25.37
2023-03-29T17:53:29.040Z,41.70
2023-03-29T17:55:56.428Z,33.28
2023-03-29T17:58:24.117Z,61.25
2023-03-29T18:00:51.560Z,114.47
2023-03-29T18:03:19.054Z,92.30
2023-03-29T18:05:46.802Z,80.17
2023-03-29T18:08:15.052Z,84.83
2023-03-29T18:10:43.112Z,126.97
2023-03-29T18:13:13.893Z,108.65
2023-03-29T18:15:42.142Z,106.93
2023-03-29T18:18:09.596Z,77.80
2023-03-29T18:20:37.344Z,66.07
2023-03-29T18:23:04.797Z,72.32
2023-03-29T18:25:32.190Z,74.28
2023-03-29T18:27:59.580Z,70.70
2023-03-29T18:30:27.142Z,64.18
2023-03-29T18:32:54.675Z,70.22
2023-03-29T18:35:22.551Z,38.63
2023-03-29T18:37:50.061Z,55.72
2023-03-29T18:40:20.497Z,56.67
2023-03-29T18:42:48.024Z,52.28
2023-03-29T18:45:16.123Z,65.40
2023-03-29T18:47:43.904Z,60.85
2023-03-29T18:50:13.290Z,73.93
2023-03-29T18:52:40.870Z,102.93
2023-03-29T18:55:08.413Z,90.40
2023-03-29T18:57:36.177Z,98.80
2023-03-29T19:00:10.561Z,95.88
2023-03-29T19:02:40.028Z,94.82
2023-03-29T19:05:08.906Z,118.60
2023-03-29T19:07:37.193Z,78.80
2023-03-29T19:10:07.041Z,75.28
2023-03-29T19:12:35.299Z,81.18
2023-03-29T19:15:02.952Z,68.47
2023-03-29T19:17:30.806Z,114.10
2023-03-29T19:19:58.435Z,43.10
2023-03-29T19:22:26.718Z,69.17
2023-03-29T19:24:54.190Z,40.05
2023-03-29T19:27:21.670Z,51.92
2023-03-29T19:29:49.642Z,33.88
2023-03-29T19:32:17.355Z,36.15
2023-03-29T19:34:44.849Z,41.28
2023-03-29T19:37:12.207Z,37.88
2023-03-29T19:39:41.493Z,37.22
2023-03-29T19:42:10.264Z,26.50
2023-03-29T19:44:38.440Z,23.38
2023-03-29T19:47:06.027Z,33.75
2023-03-29T19:49:38.271Z,34.93
2023-03-29T19:52:06.347Z,32.67
2023-03-29T19:54:34.139Z,33.90
2023-03-29T19:57:02.885Z,38.47
2023-03-29T19:59:31.511Z,38.63
2023-03-29T20:01:59.308Z,32.88
2023-03-29T20:04:28.827Z,25.45
2023-03-29T20:06:57.624Z,21.90
2023-03-29T20:09:25.472Z,28.25
2023-03-29T20:11:52.881Z,25.85
2023-03-29T20:14:20.363Z,32.80
2023-03-29T20:16:50.473Z,48.03
2023-03-29T20:19:18.766Z,58.38
2023-03-29T20:21:46.179Z,47.95
2023-03-29T20:24:13.607Z,69.30
2023-03-29T20:26:41.118Z,103.50
2023-03-29T20:29:08.722Z,68.40
2023-03-29T20:31:36.301Z,60.87
2023-03-29T20:34:03.773Z,61.13
2023-03-29T20:36:31.704Z,57.60
2023-03-29T20:39:00.256Z,58.15
2023-03-29T20:44:02.975Z,129.27
2023-03-29T20:46:33.362Z,125.60
2023-03-29T20:49:07.421Z,106.90
2023-03-29T20:51:35.891Z,131.98
2023-03-29T20:54:07.730Z,127.10
2023-03-29T20:56:39.872Z,133.40
2023-03-29T20:59:10.935Z,119.63
2023-03-29T21:01:42.430Z,114.45
2023-03-29T21:04:10.972Z,160.95
2023-03-29T21:09:09.170Z,203.70
2023-03-29T21:11:36.619Z,285.27
2023-03-29T21:14:04.677Z,216.18
2023-03-29T21:16:32.317Z,197.20
2023-03-29T21:18:59.711Z,207.93
2023-03-29T21:21:27.198Z,167.95
2023-03-29T21:23:54.578Z,149.32
2023-03-29T21:26:22.889Z,121.65
2023-03-29T21:28:50.377Z,110.35
2023-03-29T21:31:17.933Z,88.60
2023-03-29T21:33:45.478Z,81.63
2023-03-29T21:36:12.961Z,77.45
2023-03-29T21:38:40.488Z,59.53
2023-03-29T21:41:12.071Z,57.08
2023-03-29T21:43:40.402Z,56.38
2023-03-29T21:46:09.400Z,52.40
2023-03-29T21:48:37.406Z,51.17
2023-03-29T21:51:06.638Z,71.00
2023-03-29T21:53:34.938Z,55.85
2023-03-29T21:56:02.762Z,60.15
2023-03-29T21:58:30.358Z,69.03
2023-03-29T22:00:57.930Z,63.43
2023-03-29T22:03:25.857Z,94.93
2023-03-29T22:06:03.310Z,101.45
2023-03-29T22:08:31.379Z,79.63
2023-03-29T22:11:08.180Z,54.22
2023-03-29T22:13:36.069Z,47.33
2023-03-29T22:16:05.142Z,40.30
2023-03-29T22:18:43.354Z,34.83
2023-03-29T22:21:22.635Z,33.60
2023-03-29T22:23:53.430Z,24.08
2023-03-29T22:26:27.594Z,22.48
2023-03-29T22:28:56.810Z,28.40
2023-03-29T22:31:28.684Z,56.20
2023-03-29T22:33:56.482Z,40.95
2023-03-29T22:36:31.112Z,35.00
2023-03-29T22:38:58.723Z,36.97
2023-03-29T22:41:28.056Z,38.63
2023-03-29T22:43:58.520Z,35.17
2023-03-29T22:46:26.436Z,43.50
2023-03-29T22:48:54.175Z,42.72
2023-03-29T22:51:21.805Z,50.97
2023-03-29T22:53:49.427Z,47.60
2023-03-29T22:56:17.701Z,47.60
2023-03-29T22:58:45.762Z,55.42
2023-03-29T23:01:13.692Z,83.57
2023-03-29T23:03:41.730Z,213.15
2023-03-29T23:06:09.308Z,87.15
2023-03-29T23:08:36.849Z,54.57
2023-03-29T23:11:05.170Z,38.92
2023-03-29T23:16:03.632Z,39.45
2023-03-29T23:18:34.942Z,64.10
2023-03-29T23:21:05.672Z,70.88
2023-03-29T23:23:34.044Z,54.58
2023-03-29T23:26:02.502Z,66.53
2023-03-29T23:31:05.966Z,105.70
2023-03-29T23:33:35.927Z,114.18
2023-03-29T23:36:07.782Z,126.30
2023-03-29T23:38:38.737Z,123.78
2023-03-29T23:41:10.907Z,123.55
2023-03-29T23:43:43.977Z,118.47
2023-03-29T23:46:15.651Z,96.28
2023-03-29T23:48:50.806Z,110.82
2023-03-29T23:51:23.041Z,94.93
2023-03-29T23:53:51.424Z,95.88
2023-03-29T23:56:18.930Z,78.95
2023-03-29T23:58:46.780Z,91.95
